Time;durP1;ratioP1;P1;durP2;ratioP2;P2;SDS_P1;SDS_P2;PMS_P1;PMS_P2;Temp;Humidity;BMP_temperature;BMP_pressure;BME280_temperature;BME280_humidity;BME280_pressure;Samples;Min_cycle;Max_cycle;Signal;HPM_P1;HPM_P2
2021/07/23 00:02:33;;;;;;;11.15;8.88;;;22.50;56.50;;;;;;5186980;27;27377;-59
2021/07/23 00:05:22;;;;;;;12.13;9.10;;;22.50;56.50;;;;;;5158735;27;27938;-59
2021/07/23 00:08:12;;;;;;;14.05;9.50;;;22.50;56.60;;;;;;5171326;27;27337;-59
2021/07/23 00:11:02;;;;;;;12.40;9.23;;;22.40;56.60;;;;;;5186916;27;27558;-58
2021/07/23 00:13:58;;;;;;;12.35;9.07;;;22.40;56.70;;;;;;5181986;27;27581;-60
2021/07/23 00:16:47;;;;;;;12.30;8.98;;;22.40;56.70;;;;;;5173652;27;27451;-58
2021/07/23 00:19:35;;;;;;;14.65;9.27;;;22.30;56.80;;;;;;5187022;27;27515;-58
2021/07/23 00:22:27;;;;;;;14.02;9.27;;;22.30;56.80;;;;;;5187535;27;27411;-59
2021/07/23 00:25:15;;;;;;;14.65;10.23;;;22.20;56.70;;;;;;5158013;27;27494;-60
2021/07/23 00:28:06;;;;;;;14.80;9.30;;;22.20;56.90;;;;;;5187681;27;27349;-59
2021/07/23 00:30:54;;;;;;;12.77;9.50;;;22.10;57.10;;;;;;5168856;27;27500;-59
2021/07/23 00:33:42;;;;;;;11.77;8.55;;;22.10;57.30;;;;;;5157468;27;27335;-59
2021/07/23 00:36:32;;;;;;;9.90;8.25;;;22.10;57.20;;;;;;5187256;27;27458;-59
2021/07/23 00:39:33;;;;;;;12.20;9.18;;;22.00;57.30;;;;;;5187483;27;27417;-59
2021/07/23 00:42:20;;;;;;;13.85;9.32;;;22.00;57.40;;;;;;5186667;27;27388;-59
2021/07/23 00:45:10;;;;;;;13.57;9.60;;;22.00;57.50;;;;;;5172242;27;26981;-59
2021/07/23 00:48:01;;;;;;;11.93;8.98;;;22.00;57.80;;;;;;5186392;27;27395;-59
2021/07/23 00:50:53;;;;;;;11.00;8.02;;;21.90;57.70;;;;;;5187252;27;27327;-59
2021/07/23 00:53:41;;;;;;;12.90;9.52;;;21.90;57.60;;;;;;5157448;27;27404;-59
2021/07/23 00:56:31;;;;;;;15.27;8.32;;;21.90;57.70;;;;;;5171075;27;27520;-58
2021/07/23 00:59:21;;;;;;;12.40;8.70;;;21.90;57.60;;;;;;5186338;27;27371;-58
2021/07/23 01:02:13;;;;;;;14.25;9.68;;;21.80;57.80;;;;;;5183056;27;27404;-59
2021/07/23 01:05:03;;;;;;;11.77;8.27;;;21.80;57.80;;;;;;5186168;27;27420;-59
2021/07/23 01:07:52;;;;;;;10.90;8.60;;;21.70;57.70;;;;;;5171580;27;27475;-59
2021/07/23 01:10:43;;;;;;;13.13;8.95;;;21.70;57.80;;;;;;5154298;27;27465;-59
2021/07/23 01:13:52;;;;;;;13.05;8.65;;;21.70;57.90;;;;;;5186743;27;27394;-60
2021/07/23 01:16:44;;;;;;;17.40;9.07;;;21.60;58.00;;;;;;5186732;27;27533;-59
2021/07/23 01:19:53;;;;;;;10.98;8.88;;;21.60;58.00;;;;;;5187883;27;27358;-59
2021/07/23 01:22:44;;;;;;;17.23;8.93;;;21.60;58.20;;;;;;5173194;27;27468;-58
2021/07/23 01:25:38;;;;;;;12.02;8.93;;;21.50;58.10;;;;;;5186125;27;27842;-59
2021/07/23 01:28:34;;;;;;;11.10;8.75;;;21.50;58.20;;;;;;5186311;27;27397;-59
2021/07/23 01:31:29;;;;;;;11.55;7.90;;;21.50;58.40;;;;;;5186138;27;27468;-59
2021/07/23 01:34:19;;;;;;;10.55;8.68;;;21.50;58.40;;;;;;5190351;27;27385;-59
2021/07/23 01:37:08;;;;;;;11.55;8.90;;;21.50;58.40;;;;;;5175444;27;27483;-59
2021/07/23 01:40:04;;;;;;;12.25;8.73;;;21.40;58.50;;;;;;5189499;27;27440;-59
2021/07/23 01:42:54;;;;;;;12.68;8.25;;;21.40;58.40;;;;;;5186263;27;27390;-59
2021/07/23 01:45:44;;;;;;;14.95;9.07;;;21.40;58.50;;;;;;5160588;27;27552;-59
2021/07/23 01:49:07;;;;;;;15.07;8.60;;;21.40;58.60;;;;;;5179941;27;27467;-59
2021/07/23 01:51:58;;;;;;;13.45;8.50;;;21.30;58.60;;;;;;5189303;27;27380;-59
2021/07/23 01:55:13;;;;;;;11.48;9.20;;;21.30;58.70;;;;;;5190067;27;27437;-59
2021/07/23 01:58:06;;;;;;;11.40;8.63;;;21.20;58.60;;;;;;5190011;27;27502;-59
2021/07/23 02:00:57;;;;;;;13.75;8.90;;;21.20;58.50;;;;;;5189764;27;27346;-58
2021/07/23 02:03:53;;;;;;;11.73;9.40;;;21.20;58.70;;;;;;5188988;27;27425;-59
2021/07/23 02:06:47;;;;;;;11.93;8.38;;;21.20;58.80;;;;;;5160835;27;27380;-59
2021/07/23 02:09:36;;;;;;;10.73;8.10;;;21.20;58.70;;;;;;5185589;27;27450;-59
2021/07/23 02:12:25;;;;;;;11.77;9.25;;;21.10;58.80;;;;;;5160293;27;27335;-59
2021/07/23 02:15:25;;;;;;;10.13;8.55;;;21.10;59.40;;;;;;5188880;27;27603;-59
2021/07/23 02:18:17;;;;;;;14.60;8.77;;;21.10;58.80;;;;;;5188055;27;27343;-59
2021/07/23 02:21:11;;;;;;;14.88;8.77;;;21.00;58.80;;;;;;5171527;27;27339;-58
2021/07/23 02:23:59;;;;;;;10.77;8.40;;;21.00;59.00;;;;;;5170652;27;27835;-59
2021/07/23 02:26:56;;;;;;;13.43;9.02;;;21.00;59.10;;;;;;5171202;27;27395;-59
2021/07/23 02:29:46;;;;;;;12.95;8.85;;;21.00;59.00;;;;;;5188859;27;27433;-58
2021/07/23 02:32:40;;;;;;;13.05;9.15;;;21.00;59.10;;;;;;5170654;27;27438;-59
2021/07/23 02:35:29;;;;;;;13.25;8.55;;;20.90;59.20;;;;;;5171097;27;27462;-59
2021/07/23 02:38:18;;;;;;;11.70;8.30;;;20.90;59.10;;;;;;5188441;27;27438;-58
2021/07/23 02:41:15;;;;;;;14.15;8.27;;;20.90;59.30;;;;;;5175439;27;27368;-59
2021/07/23 02:44:04;;;;;;;13.65;9.00;;;20.90;59.30;;;;;;5172547;27;27444;-59
2021/07/23 02:46:54;;;;;;;12.15;8.50;;;20.80;59.30;;;;;;5189023;27;27318;-59
2021/07/23 02:49:50;;;;;;;11.23;8.77;;;20.80;59.40;;;;;;5189178;27;27473;-59
2021/07/23 02:52:42;;;;;;;17.52;8.05;;;20.80;59.40;;;;;;5175387;27;27480;-59
2021/07/23 02:55:31;;;;;;;13.73;8.70;;;20.80;59.40;;;;;;5188206;27;27388;-59
2021/07/23 02:58:20;;;;;;;11.63;8.05;;;20.80;59.40;;;;;;5188709;27;27438;-58
2021/07/23 03:01:11;;;;;;;12.48;8.65;;;20.80;59.30;;;;;;5174042;27;27454;-59
2021/07/23 03:04:01;;;;;;;16.35;8.90;;;20.70;59.30;;;;;;5170267;27;27417;-59
2021/07/23 03:07:11;;;;;;;12.38;8.38;;;20.70;59.30;;;;;;5188100;27;27723;-59
2021/07/23 03:10:00;;;;;;;13.43;8.77;;;20.60;59.40;;;;;;5187792;27;27441;-59
2021/07/23 03:12:49;;;;;;;15.15;9.23;;;20.60;60.20;;;;;;5170400;27;27486;-59
2021/07/23 03:15:50;;;;;;;13.30;8.13;;;20.60;59.40;;;;;;5172671;27;27475;-59
2021/07/23 03:18:44;;;;;;;12.68;8.60;;;20.60;59.60;;;;;;5188631;27;27276;-59
2021/07/23 03:21:34;;;;;;;10.23;7.60;;;20.50;59.50;;;;;;5187952;27;27418;-59
2021/07/23 03:24:25;;;;;;;12.85;8.85;;;20.50;59.50;;;;;;5187882;27;27494;-59
2021/07/23 03:27:16;;;;;;;16.38;8.13;;;20.40;59.50;;;;;;5184571;27;27472;-59
2021/07/23 03:30:27;;;;;;;11.20;7.63;;;20.40;59.60;;;;;;5184388;27;27420;-59
2021/07/23 03:33:20;;;;;;;10.93;8.02;;;20.40;60.30;;;;;;5188518;27;27951;-59
2021/07/23 03:36:09;;;;;;;12.75;8.40;;;20.40;59.80;;;;;;5187487;27;27384;-58
2021/07/23 03:38:58;;;;;;;13.27;8.77;;;20.30;59.80;;;;;;5184027;27;27025;-59
2021/07/23 03:41:48;;;;;;;11.45;7.57;;;20.30;59.80;;;;;;5169313;27;27522;-59
2021/07/23 03:44:42;;;;;;;8.75;7.22;;;20.30;59.80;;;;;;5188170;27;27548;-58
2021/07/23 03:47:34;;;;;;;11.43;7.97;;;20.20;59.80;;;;;;5155632;27;27395;-59
2021/07/23 03:50:24;;;;;;;10.95;8.00;;;20.20;59.80;;;;;;5155624;27;27340;-59
2021/07/23 03:53:26;;;;;;;12.85;7.93;;;20.20;60.00;;;;;;5187925;27;27475;-60
2021/07/23 03:56:30;;;;;;;13.98;8.32;;;20.10;60.00;;;;;;5187148;27;27957;-59
2021/07/23 03:59:21;;;;;;;13.15;8.60;;;20.10;60.00;;;;;;5183383;27;27504;-58
2021/07/23 04:02:16;;;;;;;19.05;7.85;;;20.10;60.10;;;;;;5188212;27;27398;-59
2021/07/23 04:05:05;;;;;;;17.40;8.65;;;20.00;60.20;;;;;;5187678;27;27091;-59
2021/07/23 04:07:58;;;;;;;20.65;9.77;;;20.00;60.10;;;;;;5183803;27;27990;-59
2021/07/23 04:10:51;;;;;;;18.88;8.38;;;20.00;60.30;;;;;;5170477;27;27285;-59
2021/07/23 04:13:48;;;;;;;18.08;8.30;;;20.00;60.30;;;;;;5169291;27;27406;-58
2021/07/23 04:16:37;;;;;;;17.23;7.80;;;20.00;60.40;;;;;;5169148;27;27471;-59
2021/07/23 04:19:29;;;;;;;11.68;7.80;;;19.90;60.30;;;;;;5168327;27;27404;-58
2021/07/23 04:22:29;;;;;;;11.98;8.00;;;19.90;60.40;;;;;;5186652;27;27395;-59
2021/07/23 04:25:38;;;;;;;14.75;8.60;;;19.90;60.50;;;;;;5187055;27;27411;-59
2021/07/23 04:28:28;;;;;;;11.50;7.78;;;19.90;60.60;;;;;;5186794;27;27421;-59
2021/07/23 04:31:20;;;;;;;16.60;8.13;;;19.80;60.60;;;;;;5187172;27;27368;-59
2021/07/23 04:34:18;;;;;;;12.25;8.13;;;19.80;60.70;;;;;;5170381;27;27381;-59
2021/07/23 04:37:35;;;;;;;13.27;8.07;;;19.80;60.80;;;;;;5172373;27;27429;-59
2021/07/23 04:40:56;;;;;;;13.90;8.20;;;19.80;61.00;;;;;;5183012;27;27329;-59
2021/07/23 04:43:56;;;;;;;19.67;8.30;;;19.80;61.30;;;;;;5186674;27;27400;-59
2021/07/23 04:46:45;;;;;;;16.15;8.70;;;19.80;61.40;;;;;;5168751;27;27422;-59
2021/07/23 04:49:37;;;;;;;13.95;8.05;;;19.80;61.50;;;;;;5182925;27;27410;-59
2021/07/23 04:52:41;;;;;;;16.02;8.63;;;19.80;61.40;;;;;;5186515;27;27330;-60
2021/07/23 04:55:58;;;;;;;11.00;7.60;;;19.80;61.60;;;;;;5163711;27;27475;-59
2021/07/23 04:58:55;;;;;;;14.77;8.80;;;19.80;61.80;;;;;;5185754;27;27507;-58
2021/07/23 05:01:49;;;;;;;12.40;8.75;;;19.80;61.90;;;;;;5182865;27;27338;-59
2021/07/23 05:04:45;;;;;;;12.75;8.80;;;19.80;62.10;;;;;;5187273;27;27401;-59
2021/07/23 05:07:36;;;;;;;14.07;8.25;;;19.80;61.90;;;;;;5168254;27;27419;-58
2021/07/23 05:10:33;;;;;;;13.82;9.43;;;19.80;62.10;;;;;;5187231;27;27425;-59
2021/07/23 05:13:25;;;;;;;15.20;8.32;;;19.90;62.40;;;;;;5168742;27;27315;-61
2021/07/23 05:16:15;;;;;;;14.27;8.45;;;19.90;62.40;;;;;;5184595;27;27438;-59
2021/07/23 05:19:06;;;;;;;18.90;8.70;;;19.90;62.40;;;;;;5153573;27;27402;-59
2021/07/23 05:21:56;;;;;;;16.58;9.35;;;19.90;62.60;;;;;;5186311;27;27459;-59
2021/07/23 05:24:51;;;;;;;16.27;8.30;;;19.90;62.80;;;;;;5186598;27;27357;-59
2021/07/23 05:27:48;;;;;;;24.27;10.02;;;19.90;62.80;;;;;;5168339;27;27384;-59
2021/07/23 05:30:41;;;;;;;14.77;9.48;;;19.90;62.90;;;;;;5182652;27;27949;-59
2021/07/23 05:33:35;;;;;;;25.33;11.75;;;20.00;63.00;;;;;;5173019;27;27320;-58
2021/07/23 05:36:40;;;;;;;15.50;10.75;;;20.00;63.40;;;;;;5172502;27;27473;-59
2021/07/23 05:39:30;;;;;;;17.58;9.88;;;20.00;63.50;;;;;;5187038;27;27391;-59
2021/07/23 05:42:20;;;;;;;17.58;10.70;;;20.00;63.70;;;;;;5186794;27;27401;-59
2021/07/23 05:45:09;;;;;;;16.73;10.25;;;20.00;63.90;;;;;;5172206;27;27384;-59
2021/07/23 05:47:56;;;;;;;16.35;11.02;;;20.10;63.80;;;;;;5186550;27;27440;-60
2021/07/23 05:50:56;;;;;;;20.45;11.00;;;20.10;64.20;;;;;;5186557;27;27409;-59
2021/07/23 05:53:49;;;;;;;13.40;10.18;;;20.10;64.10;;;;;;5186633;27;27439;-59
2021/07/23 05:56:39;;;;;;;15.05;10.65;;;20.20;63.30;;;;;;5187394;27;27326;-59
2021/07/23 05:59:34;;;;;;;15.07;11.48;;;20.20;63.80;;;;;;5182978;27;27038;-59
2021/07/23 06:02:24;;;;;;;13.93;10.57;;;20.30;64.20;;;;;;5171846;27;27510;-59
2021/07/23 06:05:20;;;;;;;15.40;11.20;;;20.30;64.30;;;;;;5186427;27;27431;-59
2021/07/23 06:08:15;;;;;;;14.32;10.35;;;20.30;63.80;;;;;;5176464;27;27378;-59
2021/07/23 06:11:10;;;;;;;15.88;11.02;;;20.40;64.00;;;;;;5190643;27;27383;-58
2021/07/23 06:14:14;;;;;;;14.27;9.63;;;20.50;63.90;;;;;;5190068;27;27315;-59
2021/07/23 06:17:03;;;;;;;13.88;10.77;;;20.70;64.00;;;;;;5167276;27;27374;-59
2021/07/23 06:19:51;;;;;;;18.45;11.68;;;20.90;63.50;;;;;;5138739;27;27413;-59
2021/07/23 06:22:40;;;;;;;21.83;11.80;;;21.10;63.40;;;;;;5167158;27;27434;-60
2021/07/23 06:25:29;;;;;;;17.55;11.32;;;21.30;62.40;;;;;;5153276;27;27019;-60
2021/07/23 06:28:26;;;;;;;16.42;11.80;;;21.50;62.50;;;;;;5153034;27;27524;-59
2021/07/23 06:31:32;;;;;;;16.35;11.75;;;21.70;62.30;;;;;;5153809;27;27424;-60
2021/07/23 06:34:47;;;;;;;17.13;11.30;;;21.90;62.10;;;;;;5141465;27;27442;-60
2021/07/23 06:37:40;;;;;;;14.13;10.93;;;22.10;62.10;;;;;;5152990;27;27503;-60
2021/07/23 06:40:33;;;;;;;16.80;11.60;;;22.30;62.10;;;;;;5167080;27;27459;-59
2021/07/23 06:43:28;;;;;;;14.25;10.82;;;22.40;62.10;;;;;;5167567;27;27418;-60
2021/07/23 06:46:23;;;;;;;18.48;10.95;;;22.60;61.90;;;;;;5153003;27;27469;-61
2021/07/23 06:49:13;;;;;;;16.98;12.60;;;22.80;61.40;;;;;;5137934;27;27774;-60
2021/07/23 06:52:04;;;;;;;20.58;11.57;;;22.90;60.90;;;;;;5138786;27;27456;-59
2021/07/23 06:54:55;;;;;;;18.67;10.75;;;23.10;61.10;;;;;;5167496;27;27355;-60
2021/07/23 06:57:48;;;;;;;18.50;11.30;;;23.20;61.10;;;;;;5189009;27;27336;-60
2021/07/23 07:00:42;;;;;;;16.25;10.07;;;23.40;61.00;;;;;;5189012;27;27433;-60
2021/07/23 07:03:36;;;;;;;17.38;10.45;;;23.50;60.60;;;;;;5175380;27;27523;-60
2021/07/23 07:06:25;;;;;;;13.70;10.82;;;23.60;60.70;;;;;;5189127;27;27406;-60
2021/07/23 07:09:22;;;;;;;15.13;11.52;;;23.70;60.70;;;;;;5174769;27;27444;-60
2021/07/23 07:12:16;;;;;;;19.00;11.77;;;23.90;60.90;;;;;;5185625;27;27496;-60
2021/07/23 07:15:17;;;;;;;17.17;10.65;;;24.00;60.20;;;;;;5187447;27;27332;-60
2021/07/23 07:18:09;;;;;;;14.93;10.50;;;24.20;60.30;;;;;;5189057;27;27397;-61
2021/07/23 07:21:06;;;;;;;14.18;10.30;;;24.30;61.00;;;;;;5171746;27;27402;-61
2021/07/23 07:23:54;;;;;;;16.27;10.88;;;24.50;60.00;;;;;;5188600;27;27471;-61
2021/07/23 07:27:06;;;;;;;14.20;9.98;;;24.60;59.50;;;;;;5188826;27;27379;-60
2021/07/23 07:30:00;;;;;;;13.38;10.35;;;24.80;59.40;;;;;;5189129;27;27490;-60
2021/07/23 07:32:55;;;;;;;13.35;9.32;;;25.00;59.10;;;;;;5174179;27;27488;-63
2021/07/23 07:35:50;;;;;;;12.60;9.48;;;25.10;58.70;;;;;;5174928;27;27377;-61
2021/07/23 07:38:48;;;;;;;20.45;11.10;;;25.30;58.60;;;;;;5173898;27;27439;-60
2021/07/23 07:42:02;;;;;;;14.05;9.77;;;25.50;57.80;;;;;;5188462;27;27452;-61
2021/07/23 07:45:05;;;;;;;13.85;9.55;;;25.70;57.80;;;;;;5184903;27;27488;-62
2021/07/23 07:48:02;;;;;;;10.63;9.32;;;25.80;57.80;;;;;;5189308;27;27408;-62
2021/07/23 07:50:51;;;;;;;14.98;10.05;;;26.00;57.60;;;;;;5188388;27;27477;-61
2021/07/23 07:53:41;;;;;;;13.50;10.18;;;26.20;57.40;;;;;;5187955;27;27482;-63
2021/07/23 07:56:32;;;;;;;15.30;9.38;;;26.40;57.00;;;;;;5188883;27;27421;-61
2021/07/23 07:59:32;;;;;;;16.42;9.65;;;26.60;56.80;;;;;;5188444;27;27403;-63
2021/07/23 08:02:25;;;;;;;10.85;8.15;;;26.70;56.60;;;;;;5188237;27;27854;-62
2021/07/23 08:05:18;;;;;;;11.82;9.55;;;26.90;56.00;;;;;;5188670;27;27489;-62
2021/07/23 08:08:14;;;;;;;12.52;9.13;;;27.20;55.50;;;;;;5173580;27;27429;-62
2021/07/23 08:11:04;;;;;;;12.60;9.50;;;27.30;55.80;;;;;;5187369;27;27391;-62
2021/07/23 08:13:52;;;;;;;13.02;9.63;;;27.50;55.20;;;;;;5188441;27;27943;-62
2021/07/23 08:16:47;;;;;;;14.38;9.23;;;27.70;54.80;;;;;;5185100;27;27675;-62
2021/07/23 08:19:38;;;;;;;9.73;8.48;;;27.90;54.70;;;;;;5187760;27;27486;-63
2021/07/23 08:22:52;;;;;;;13.15;9.25;;;28.20;54.60;;;;;;5188679;27;27391;-62
2021/07/23 08:25:52;;;;;;;14.38;9.75;;;28.30;53.70;;;;;;5187646;27;28083;-62
2021/07/23 08:28:46;;;;;;;12.55;9.77;;;28.50;53.00;;;;;;5172248;27;27416;-62
2021/07/23 08:31:37;;;;;;;12.45;9.05;;;28.60;53.00;;;;;;5188532;27;27318;-61
2021/07/23 08:34:30;;;;;;;11.60;9.15;;;28.80;53.00;;;;;;5184183;27;27435;-63
2021/07/23 08:37:29;;;;;;;13.43;9.57;;;29.00;52.50;;;;;;5159277;27;27432;-63
2021/07/23 08:40:26;;;;;;;13.48;9.65;;;29.10;52.90;;;;;;5173281;27;27428;-62
2021/07/23 08:43:44;;;;;;;12.10;10.00;;;29.30;52.30;;;;;;5187664;27;27313;-62
2021/07/23 08:46:38;;;;;;;16.80;9.60;;;29.40;52.20;;;;;;5169227;27;27472;-62
2021/07/23 08:49:41;;;;;;;11.98;9.35;;;29.60;52.40;;;;;;5184342;27;27629;-65
2021/07/23 08:53:09;;;;;;;11.40;9.18;;;29.80;52.10;;;;;;5154679;27;27399;-62
2021/07/23 08:56:09;;;;;;;13.38;9.73;;;29.90;52.30;;;;;;5188010;27;27391;-63
2021/07/23 08:58:57;;;;;;;10.40;8.75;;;30.10;51.60;;;;;;5172271;27;27503;-63
2021/07/23 09:02:31;;;;;;;13.98;9.02;;;30.30;51.30;;;;;;5187319;27;27359;-64
2021/07/23 09:05:41;;;;;;;13.20;9.25;;;30.40;51.10;;;;;;5186827;27;27446;-63
2021/07/23 09:09:02;;;;;;;11.45;8.95;;;30.60;51.00;;;;;;5187774;27;26927;-63
2021/07/23 09:12:27;;;;;;;12.15;8.60;;;30.80;50.10;;;;;;5187389;27;27404;-63
2021/07/23 09:15:33;;;;;;;12.63;9.07;;;31.00;50.10;;;;;;5186065;27;27326;-64
2021/07/23 09:18:35;;;;;;;14.80;9.07;;;31.20;50.20;;;;;;5158027;27;27378;-64
2021/07/23 09:21:30;;;;;;;14.32;7.82;;;31.30;49.90;;;;;;5187817;27;26938;-61
2021/07/23 09:24:23;;;;;;;9.63;8.48;;;31.50;50.10;;;;;;5157727;27;27393;-63
2021/07/23 09:27:11;;;;;;;10.40;9.15;;;31.70;48.90;;;;;;5171944;27;27434;-64
2021/07/23 09:30:15;;;;;;;12.05;9.60;;;31.80;48.70;;;;;;5146501;27;27339;-61
2021/07/23 09:33:27;;;;;;;11.75;9.52;;;32.00;48.70;;;;;;5158810;27;27347;-62
2021/07/23 09:36:24;;;;;;;10.60;8.80;;;32.00;48.30;;;;;;5173307;27;27402;-62
2021/07/23 09:39:22;;;;;;;9.48;8.32;;;32.10;47.80;;;;;;5166227;27;27359;-64
2021/07/23 09:42:21;;;;;;;9.50;8.57;;;32.00;47.10;;;;;;5157844;27;27393;-64
2021/07/23 09:45:15;;;;;;;11.73;9.27;;;32.10;46.90;;;;;;5176965;27;27476;-64
2021/07/23 09:48:35;;;;;;;11.52;7.60;;;32.20;47.70;;;;;;5190881;27;26852;-62
2021/07/23 09:51:30;;;;;;;10.18;8.20;;;32.30;47.30;;;;;;5190804;27;27828;-63
2021/07/23 09:54:42;;;;;;;14.02;8.13;;;32.40;48.10;;;;;;5191041;27;27364;-64
2021/07/23 09:57:33;;;;;;;10.13;8.30;;;32.60;47.50;;;;;;5157405;27;27547;-63
2021/07/23 10:04:56;;;;;;;10.60;7.65;;;32.80;45.70;;;;;;5190278;27;27347;-64
2021/07/23 10:07:52;;;;;;;8.55;7.65;;;32.80;43.90;;;;;;5174977;27;27571;-64
2021/07/23 10:10:50;;;;;;;10.95;7.63;;;32.80;44.70;;;;;;5190547;27;27414;-64
2021/07/23 10:13:45;;;;;;;9.18;8.10;;;32.80;45.00;;;;;;5175796;27;27327;-63
2021/07/23 10:16:50;;;;;;;16.35;7.70;;;32.90;45.80;;;;;;5156827;27;27984;-67
2021/07/23 10:19:40;;;;;;;9.32;8.23;;;33.00;46.20;;;;;;5190158;27;27429;-64
2021/07/23 10:22:39;;;;;;;13.13;7.93;;;33.00;45.30;;;;;;5175339;27;27460;-63
2021/07/23 10:25:39;;;;;;;8.70;7.63;;;33.00;45.10;;;;;;5160598;27;27477;-63
2021/07/23 10:29:03;;;;;;;10.73;8.52;;;33.10;45.50;;;;;;5189807;27;27530;-63
2021/07/23 10:32:35;;;;;;;8.57;7.68;;;33.10;44.30;;;;;;5157347;27;27473;-68
2021/07/23 10:35:49;;;;;;;9.15;7.88;;;33.10;45.60;;;;;;5130260;27;27522;-62
2021/07/23 10:38:46;;;;;;;9.93;7.90;;;33.20;45.30;;;;;;5175586;27;27321;-63
2021/07/23 10:42:21;;;;;;;8.32;7.53;;;33.20;45.80;;;;;;5189959;27;27358;-66
2021/07/23 10:45:50;;;;;;;10.80;7.95;;;33.20;45.10;;;;;;5189808;27;27426;-65
2021/07/23 10:49:04;;;;;;;8.70;7.50;;;33.30;44.80;;;;;;5161195;27;27437;-63
2021/07/23 10:55:48;;;;;;;9.60;8.18;;;33.50;45.20;;;;;;5172041;27;27973;-62
2021/07/23 10:58:57;;;;;;;8.68;7.82;;;33.50;45.20;;;;;;5189525;27;27503;-61
2021/07/23 11:02:14;;;;;;;7.95;6.68;;;33.60;45.30;;;;;;5170922;27;27431;-61
2021/07/23 11:05:13;;;;;;;11.50;7.63;;;33.70;45.30;;;;;;5160536;27;27391;-63
2021/07/23 11:16:24;;;;;;;9.35;8.30;;;33.90;44.30;;;;;;5186013;27;27394;-63
2021/07/23 11:23:42;;;;;;;9.98;8.68;;;34.10;45.20;;;;;;5158376;27;27423;-61
2021/07/23 11:27:06;;;;;;;10.07;8.18;;;34.20;44.60;;;;;;5152723;27;27385;-61
2021/07/23 11:30:21;;;;;;;9.32;7.80;;;34.30;44.00;;;;;;5136217;27;27450;-61
2021/07/23 11:34:21;;;;;;;11.25;7.88;;;34.40;43.40;;;;;;5168327;27;27322;-61
2021/07/23 11:37:40;;;;;;;12.25;8.27;;;34.30;42.00;;;;;;5149081;27;27471;-62
2021/07/23 11:40:39;;;;;;;9.13;7.60;;;34.10;41.70;;;;;;5163790;27;27391;-61
2021/07/23 11:43:32;;;;;;;14.30;8.52;;;34.00;42.80;;;;;;5163829;27;27424;-60
2021/07/23 11:46:30;;;;;;;11.52;8.25;;;33.90;43.30;;;;;;5152974;27;27401;-61
2021/07/23 11:50:26;;;;;;;14.40;7.88;;;33.80;43.50;;;;;;5165358;27;27472;-62
2021/07/23 11:53:41;;;;;;;10.68;8.50;;;33.70;43.40;;;;;;5166216;27;27436;-61
2021/07/23 11:57:04;;;;;;;11.25;8.60;;;33.40;44.00;;;;;;5151823;27;26929;-62
2021/07/23 11:59:59;;;;;;;9.68;8.68;;;33.20;44.10;;;;;;5135475;27;27556;-61
2021/07/23 12:03:12;;;;;;;9.63;8.45;;;33.20;43.70;;;;;;5165359;27;27362;-62
2021/07/23 12:06:29;;;;;;;10.18;8.98;;;33.20;43.60;;;;;;5153857;27;27520;-61
2021/07/23 12:09:30;;;;;;;10.10;8.82;;;33.20;44.10;;;;;;5152777;27;27340;-61
2021/07/23 12:12:31;;;;;;;10.35;8.40;;;33.30;43.80;;;;;;5134699;27;27416;-61
2021/07/23 12:15:20;;;;;;;12.05;8.88;;;33.40;44.10;;;;;;5122557;27;27537;-61
2021/07/23 12:18:18;;;;;;;9.65;8.45;;;33.40;44.70;;;;;;5164936;27;27482;-61
2021/07/23 12:21:18;;;;;;;11.13;9.20;;;33.40;42.00;;;;;;5137400;27;27353;-62
2021/07/23 12:24:17;;;;;;;11.90;9.40;;;33.40;41.70;;;;;;5137477;27;27508;-60
2021/07/23 12:27:31;;;;;;;10.70;8.68;;;33.40;43.50;;;;;;5151429;27;27450;-61
2021/07/23 12:30:36;;;;;;;10.75;8.57;;;33.40;40.60;;;;;;5151516;27;27437;-61
2021/07/23 12:33:37;;;;;;;11.27;8.65;;;33.30;39.10;;;;;;5133446;27;27355;-63
2021/07/23 12:36:26;;;;;;;12.05;9.55;;;33.30;41.80;;;;;;5147607;27;27448;-62
2021/07/23 12:40:07;;;;;;;11.27;9.07;;;33.30;43.30;;;;;;5151108;27;27506;-61
2021/07/23 12:47:33;;;;;;;9.30;8.40;;;33.20;42.20;;;;;;5164845;27;27612;-61
2021/07/23 12:50:28;;;;;;;12.43;8.85;;;33.20;42.40;;;;;;5136464;27;27340;-62
2021/07/23 12:57:46;;;;;;;13.52;8.77;;;33.20;40.00;;;;;;5161900;27;27363;-61
2021/07/23 13:01:08;;;;;;;14.55;8.90;;;33.20;42.70;;;;;;5151387;27;27455;-61
2021/07/23 13:04:02;;;;;;;16.92;8.90;;;33.20;42.80;;;;;;5151771;27;27340;-61
2021/07/23 13:06:56;;;;;;;12.23;8.63;;;33.20;43.90;;;;;;5118377;27;27453;-60
2021/07/23 13:09:53;;;;;;;17.98;8.55;;;33.30;43.20;;;;;;5150374;27;27516;-61
2021/07/23 13:12:47;;;;;;;12.68;9.20;;;33.40;42.20;;;;;;5151505;27;27430;-61
2021/07/23 13:15:47;;;;;;;8.60;7.45;;;33.40;42.30;;;;;;5152383;27;27492;-62
2021/07/23 13:18:39;;;;;;;10.98;8.20;;;33.40;42.40;;;;;;5123302;27;27855;-62
2021/07/23 13:21:35;;;;;;;11.93;9.00;;;33.50;42.40;;;;;;5154522;27;27422;-62
2021/07/23 13:24:22;;;;;;;11.85;8.23;;;33.50;42.00;;;;;;5154369;27;27507;-61
2021/07/23 13:27:14;;;;;;;9.15;7.68;;;33.50;43.20;;;;;;5168580;27;27498;-61
2021/07/23 13:30:08;;;;;;;9.93;8.10;;;33.50;41.70;;;;;;5168835;27;27502;-61
2021/07/23 13:33:00;;;;;;;10.30;8.27;;;33.50;42.30;;;;;;5168740;27;27462;-61
2021/07/23 13:36:16;;;;;;;17.83;8.50;;;33.50;42.20;;;;;;5154185;27;27414;-61
2021/07/23 13:43:17;;;;;;;10.55;8.98;;;33.50;42.40;;;;;;5167540;27;27510;-61
2021/07/23 13:46:49;;;;;;;10.20;8.27;;;33.50;41.10;;;;;;5167293;27;27485;-61
2021/07/23 13:50:11;;;;;;;15.52;8.07;;;33.40;41.50;;;;;;5191226;27;27419;-60
2021/07/23 13:53:09;;;;;;;11.70;8.90;;;33.40;41.70;;;;;;5190814;27;27385;-60
2021/07/23 13:56:08;;;;;;;9.73;8.02;;;33.40;41.30;;;;;;5161226;27;27473;-61
2021/07/23 14:03:39;;;;;;;8.82;7.93;;;33.40;40.70;;;;;;5124324;27;27463;-60
2021/07/23 14:07:18;;;;;;;11.98;7.90;;;33.20;40.60;;;;;;5111442;27;27433;-63
2021/07/23 14:10:23;;;;;;;13.13;8.40;;;33.20;40.80;;;;;;5125903;27;27938;-61
2021/07/23 14:13:26;;;;;;;12.35;8.57;;;33.10;39.10;;;;;;5094305;27;27583;-62
2021/07/23 14:20:40;;;;;;;9.68;8.40;;;32.90;37.80;;;;;;5084178;28;27015;-61
2021/07/23 14:23:35;;;;;;;11.07;8.00;;;32.70;37.90;;;;;;5070996;28;27522;-61
2021/07/23 14:26:35;;;;;;;10.75;8.55;;;32.70;39.10;;;;;;5083656;28;27467;-61
2021/07/23 14:29:41;;;;;;;14.55;8.75;;;32.70;40.30;;;;;;5039926;28;27345;-61
2021/07/23 14:32:36;;;;;;;11.00;8.40;;;32.70;39.00;;;;;;5070439;28;27661;-62
2021/07/23 14:35:53;;;;;;;10.82;8.93;;;32.70;39.00;;;;;;5091894;28;27954;-60
2021/07/23 14:39:28;;;;;;;9.80;8.75;;;32.60;40.30;;;;;;5084174;28;27344;-61
2021/07/23 14:42:28;;;;;;;10.27;9.05;;;32.60;41.90;;;;;;5075336;28;27466;-61
2021/07/23 14:45:36;;;;;;;11.35;8.77;;;32.70;42.50;;;;;;5073406;28;27498;-62
2021/07/23 14:48:51;;;;;;;11.85;9.02;;;32.80;41.50;;;;;;5083926;28;27450;-62
2021/07/23 14:52:00;;;;;;;10.52;8.20;;;32.80;40.10;;;;;;5104923;28;27383;-62
2021/07/23 14:55:07;;;;;;;10.55;9.18;;;32.80;41.30;;;;;;5092615;27;27378;-63
2021/07/23 14:58:37;;;;;;;10.95;9.07;;;32.70;41.20;;;;;;5156559;27;27476;-61
2021/07/23 15:01:32;;;;;;;17.13;9.00;;;32.70;41.30;;;;;;5138849;27;27902;-61
2021/07/23 15:04:41;;;;;;;12.20;8.93;;;32.70;41.70;;;;;;5167742;27;27335;-61
2021/07/23 15:08:13;;;;;;;10.15;8.73;;;32.70;42.10;;;;;;5168490;27;27331;-61
2021/07/23 15:11:28;;;;;;;12.95;9.23;;;32.70;42.10;;;;;;5168526;27;27327;-63
2021/07/23 15:14:44;;;;;;;12.13;8.93;;;32.70;42.10;;;;;;5154356;27;27351;-63
2021/07/23 15:17:58;;;;;;;10.90;9.27;;;32.70;41.00;;;;;;5136969;27;27431;-61
2021/07/23 15:21:05;;;;;;;14.23;9.00;;;32.70;41.80;;;;;;5156295;27;27473;-61
2021/07/23 15:24:02;;;;;;;9.50;8.40;;;32.60;41.40;;;;;;5176324;27;27334;-61
2021/07/23 15:26:59;;;;;;;10.32;9.13;;;32.50;41.10;;;;;;5188984;27;27463;-61
2021/07/23 15:29:51;;;;;;;11.75;8.77;;;32.50;41.30;;;;;;5160237;27;27509;-61
2021/07/23 15:33:22;;;;;;;11.85;9.02;;;32.40;40.90;;;;;;5173813;27;27442;-60
2021/07/23 15:36:18;;;;;;;11.00;9.02;;;32.30;41.70;;;;;;5189425;27;27366;-61
2021/07/23 15:39:19;;;;;;;12.00;8.05;;;32.30;42.40;;;;;;5155933;27;27957;-61
2021/07/23 15:42:12;;;;;;;12.23;8.95;;;32.30;42.30;;;;;;5159577;27;27423;-61
2021/07/23 15:45:15;;;;;;;12.40;9.15;;;32.30;41.70;;;;;;5156380;27;27352;-61
2021/07/23 15:48:25;;;;;;;10.20;8.68;;;32.20;41.30;;;;;;5173895;27;27474;-61
2021/07/23 15:51:56;;;;;;;13.00;9.80;;;32.20;41.50;;;;;;5188844;27;27428;-62
2021/07/23 15:55:23;;;;;;;17.02;9.18;;;32.20;40.80;;;;;;5136672;27;27454;-60
2021/07/23 15:58:29;;;;;;;19.60;9.20;;;32.10;40.60;;;;;;5161131;27;27426;-61
2021/07/23 16:01:49;;;;;;;17.15;9.73;;;32.10;42.60;;;;;;5188783;27;27381;-61
2021/07/23 16:05:29;;;;;;;16.15;8.70;;;32.10;42.90;;;;;;5155246;27;27844;-65